sensor_id;sensor_type;location;lat;lon;timestamp;P1;durP1;ratioP1;P2;durP2;ratioP2
6442;SDS011;3254;47.372;8.512;2024-02-15T00:02:13;6.03;;;4.05;;
6442;SDS011;3254;47.372;8.512;2024-02-15T00:04:39;10.33;;;4.40;;
6442;SDS011;3254;47.372;8.512;2024-02-15T00:07:04;5.73;;;4.30;;
6442;SDS011;3254;47.372;8.512;2024-02-15T00:09:30;9.23;;;4.17;;
6442;SDS011;3254;47.372;8.512;2024-02-15T00:11:56;8.60;;;5.60;;
6442;SDS011;3254;47.372;8.512;2024-02-15T00:14:21;14.07;;;6.60;;
6442;SDS011;3254;47.372;8.512;2024-02-15T00:16:46;9.37;;;5.10;;
6442;SDS011;3254;47.372;8.512;2024-02-15T00:19:12;6.37;;;4.33;;
6442;SDS011;3254;47.372;8.512;2024-02-15T00:21:42;6.57;;;4.28;;
6442;SDS011;3254;47.372;8.512;2024-02-15T00:24:08;4.68;;;4.28;;
6442;SDS011;3254;47.372;8.512;2024-02-15T00:26:33;6.73;;;4.20;;
6442;SDS011;3254;47.372;8.512;2024-02-15T00:28:58;5.57;;;4.43;;
6442;SDS011;3254;47.372;8.512;2024-02-15T00:31:24;4.40;;;3.93;;
6442;SDS011;3254;47.372;8.512;2024-02-15T00:33:49;6.00;;;4.20;;
6442;SDS011;3254;47.372;8.512;2024-02-15T00:36:15;7.07;;;3.90;;
6442;SDS011;3254;47.372;8.512;2024-02-15T00:38:40;5.23;;;4.23;;
6442;SDS011;3254;47.372;8.512;2024-02-15T00:41:08;8.57;;;4.00;;
6442;SDS011;3254;47.372;8.512;2024-02-15T00:43:36;4.07;;;3.73;;
6442;SDS011;3254;47.372;8.512;2024-02-15T00:46:01;5.45;;;4.15;;
6442;SDS011;3254;47.372;8.512;2024-02-15T00:48:27;4.10;;;3.70;;
6442;SDS011;3254;47.372;8.512;2024-02-15T00:50:55;4.55;;;4.25;;
6442;SDS011;3254;47.372;8.512;2024-02-15T00:53:20;4.68;;;4.10;;
6442;SDS011;3254;47.372;8.512;2024-02-15T00:55:46;3.90;;;3.60;;
6442;SDS011;3254;47.372;8.512;2024-02-15T00:58:11;5.00;;;3.57;;
6442;SDS011;3254;47.372;8.512;2024-02-15T01:00:37;17.50;;;8.60;;
6442;SDS011;3254;47.372;8.512;2024-02-15T01:03:03;8.45;;;5.63;;
6442;SDS011;3254;47.372;8.512;2024-02-15T01:05:29;5.93;;;4.27;;
6442;SDS011;3254;47.372;8.512;2024-02-15T01:07:55;5.75;;;3.63;;
6442;SDS011;3254;47.372;8.512;2024-02-15T01:10:21;4.60;;;3.97;;
6442;SDS011;3254;47.372;8.512;2024-02-15T01:12:47;3.80;;;3.50;;
6442;SDS011;3254;47.372;8.512;2024-02-15T01:15:13;4.90;;;3.60;;
6442;SDS011;3254;47.372;8.512;2024-02-15T01:17:39;58.85;;;12.77;;
6442;SDS011;3254;47.372;8.512;2024-02-15T01:20:05;16.20;;;6.60;;
6442;SDS011;3254;47.372;8.512;2024-02-15T01:22:31;16.88;;;5.60;;
6442;SDS011;3254;47.372;8.512;2024-02-15T01:24:57;6.07;;;4.20;;
6442;SDS011;3254;47.372;8.512;2024-02-15T01:27:23;5.25;;;4.18;;
6442;SDS011;3254;47.372;8.512;2024-02-15T01:29:48;2.77;;;2.57;;
6442;SDS011;3254;47.372;8.512;2024-02-15T01:32:13;2.40;;;2.20;;
6442;SDS011;3254;47.372;8.512;2024-02-15T01:34:40;7.93;;;2.63;;
6442;SDS011;3254;47.372;8.512;2024-02-15T01:37:05;2.97;;;2.78;;
6442;SDS011;3254;47.372;8.512;2024-02-15T01:39:30;2.60;;;2.50;;
6442;SDS011;3254;47.372;8.512;2024-02-15T01:41:56;4.77;;;3.10;;
6442;SDS011;3254;47.372;8.512;2024-02-15T01:44:22;3.40;;;2.80;;
6442;SDS011;3254;47.372;8.512;2024-02-15T01:46:49;3.03;;;2.72;;
6442;SDS011;3254;47.372;8.512;2024-02-15T01:49:15;2.80;;;2.57;;
6442;SDS011;3254;47.372;8.512;2024-02-15T01:51:40;3.37;;;2.90;;
6442;SDS011;3254;47.372;8.512;2024-02-15T01:54:08;3.17;;;2.88;;
6442;SDS011;3254;47.372;8.512;2024-02-15T01:56:34;5.15;;;3.38;;
6442;SDS011;3254;47.372;8.512;2024-02-15T01:59:00;3.17;;;2.87;;
6442;SDS011;3254;47.372;8.512;2024-02-15T02:01:26;2.88;;;2.67;;
6442;SDS011;3254;47.372;8.512;2024-02-15T02:03:52;3.20;;;2.93;;
6442;SDS011;3254;47.372;8.512;2024-02-15T02:06:18;2.90;;;2.80;;
6442;SDS011;3254;47.372;8.512;2024-02-15T02:08:43;3.40;;;3.10;;
6442;SDS011;3254;47.372;8.512;2024-02-15T02:11:09;2.97;;;2.63;;
6442;SDS011;3254;47.372;8.512;2024-02-15T02:13:34;2.83;;;2.53;;
6442;SDS011;3254;47.372;8.512;2024-02-15T02:16:00;2.60;;;2.40;;
6442;SDS011;3254;47.372;8.512;2024-02-15T02:18:25;2.80;;;2.60;;
6442;SDS011;3254;47.372;8.512;2024-02-15T02:20:51;3.00;;;2.40;;
6442;SDS011;3254;47.372;8.512;2024-02-15T02:23:16;3.27;;;3.07;;
6442;SDS011;3254;47.372;8.512;2024-02-15T02:25:45;3.10;;;2.90;;
6442;SDS011;3254;47.372;8.512;2024-02-15T02:28:14;2.53;;;2.42;;
6442;SDS011;3254;47.372;8.512;2024-02-15T02:30:40;3.55;;;3.25;;
6442;SDS011;3254;47.372;8.512;2024-02-15T02:33:10;3.30;;;3.10;;
6442;SDS011;3254;47.372;8.512;2024-02-15T02:35:44;5.07;;;3.17;;
6442;SDS011;3254;47.372;8.512;2024-02-15T02:38:10;4.78;;;2.78;;
6442;SDS011;3254;47.372;8.512;2024-02-15T02:40:35;3.77;;;3.57;;
6442;SDS011;3254;47.372;8.512;2024-02-15T02:43:01;3.97;;;3.57;;
6442;SDS011;3254;47.372;8.512;2024-02-15T02:45:26;4.23;;;3.80;;
6442;SDS011;3254;47.372;8.512;2024-02-15T02:47:52;4.30;;;3.23;;
6442;SDS011;3254;47.372;8.512;2024-02-15T02:50:18;4.20;;;3.80;;
6442;SDS011;3254;47.372;8.512;2024-02-15T02:52:44;3.00;;;2.80;;
6442;SDS011;3254;47.372;8.512;2024-02-15T02:55:09;4.13;;;3.73;;
6442;SDS011;3254;47.372;8.512;2024-02-15T02:57:36;3.13;;;3.00;;
6442;SDS011;3254;47.372;8.512;2024-02-15T03:00:05;4.47;;;4.05;;
6442;SDS011;3254;47.372;8.512;2024-02-15T03:02:33;4.07;;;3.67;;
6442;SDS011;3254;47.372;8.512;2024-02-15T03:05:03;3.80;;;3.50;;
6442;SDS011;3254;47.372;8.512;2024-02-15T03:07:29;3.97;;;3.25;;
6442;SDS011;3254;47.372;8.512;2024-02-15T03:09:54;5.73;;;4.00;;
6442;SDS011;3254;47.372;8.512;2024-02-15T03:12:19;3.60;;;3.40;;
6442;SDS011;3254;47.372;8.512;2024-02-15T03:14:45;3.80;;;3.60;;
6442;SDS011;3254;47.372;8.512;2024-02-15T03:17:10;3.80;;;3.60;;
6442;SDS011;3254;47.372;8.512;2024-02-15T03:19:36;4.10;;;3.73;;
6442;SDS011;3254;47.372;8.512;2024-02-15T03:22:01;3.63;;;3.53;;
6442;SDS011;3254;47.372;8.512;2024-02-15T03:24:26;3.73;;;3.43;;
6442;SDS011;3254;47.372;8.512;2024-02-15T03:26:52;6.77;;;3.67;;
6442;SDS011;3254;47.372;8.512;2024-02-15T03:29:20;3.85;;;3.65;;
6442;SDS011;3254;47.372;8.512;2024-02-15T03:31:46;5.97;;;3.80;;
6442;SDS011;3254;47.372;8.512;2024-02-15T03:34:12;5.05;;;4.68;;
6442;SDS011;3254;47.372;8.512;2024-02-15T03:36:39;5.97;;;4.15;;
6442;SDS011;3254;47.372;8.512;2024-02-15T03:39:05;5.30;;;3.90;;
6442;SDS011;3254;47.372;8.512;2024-02-15T03:41:31;6.75;;;3.97;;
6442;SDS011;3254;47.372;8.512;2024-02-15T03:43:58;4.65;;;4.20;;
6442;SDS011;3254;47.372;8.512;2024-02-15T03:46:25;7.82;;;3.92;;
6442;SDS011;3254;47.372;8.512;2024-02-15T03:48:50;3.77;;;3.47;;
6442;SDS011;3254;47.372;8.512;2024-02-15T03:51:19;7.50;;;3.70;;
6442;SDS011;3254;47.372;8.512;2024-02-15T03:53:45;3.95;;;3.65;;
6442;SDS011;3254;47.372;8.512;2024-02-15T03:56:11;5.90;;;4.63;;
6442;SDS011;3254;47.372;8.512;2024-02-15T03:58:37;4.37;;;3.97;;
6442;SDS011;3254;47.372;8.512;2024-02-15T04:01:03;9.40;;;4.75;;
6442;SDS011;3254;47.372;8.512;2024-02-15T04:03:31;5.88;;;4.82;;
6442;SDS011;3254;47.372;8.512;2024-02-15T04:05:57;4.20;;;3.97;;
6442;SDS011;3254;47.372;8.512;2024-02-15T04:08:23;4.40;;;4.10;;
6442;SDS011;3254;47.372;8.512;2024-02-15T04:10:48;5.63;;;3.90;;
6442;SDS011;3254;47.372;8.512;2024-02-15T04:13:14;4.00;;;3.80;;
6442;SDS011;3254;47.372;8.512;2024-02-15T04:15:39;4.33;;;4.03;;
6442;SDS011;3254;47.372;8.512;2024-02-15T04:18:06;4.30;;;4.00;;
6442;SDS011;3254;47.372;8.512;2024-02-15T04:20:33;5.63;;;4.55;;
6442;SDS011;3254;47.372;8.512;2024-02-15T04:22:58;5.10;;;4.20;;
6442;SDS011;3254;47.372;8.512;2024-02-15T04:25:24;4.53;;;4.28;;
6442;SDS011;3254;47.372;8.512;2024-02-15T04:27:53;5.05;;;4.65;;
6442;SDS011;3254;47.372;8.512;2024-02-15T04:30:18;6.27;;;5.30;;
6442;SDS011;3254;47.372;8.512;2024-02-15T04:32:45;6.20;;;5.32;;
6442;SDS011;3254;47.372;8.512;2024-02-15T04:35:10;12.30;;;4.90;;
6442;SDS011;3254;47.372;8.512;2024-02-15T04:37:36;6.03;;;5.43;;
6442;SDS011;3254;47.372;8.512;2024-02-15T04:40:02;6.10;;;4.80;;
6442;SDS011;3254;47.372;8.512;2024-02-15T04:42:38;4.68;;;4.38;;
6442;SDS011;3254;47.372;8.512;2024-02-15T04:45:05;11.45;;;4.70;;
6442;SDS011;3254;47.372;8.512;2024-02-15T04:47:34;9.30;;;7.10;;
6442;SDS011;3254;47.372;8.512;2024-02-15T04:50:00;7.60;;;6.07;;
6442;SDS011;3254;47.372;8.512;2024-02-15T04:52:26;8.17;;;6.10;;
6442;SDS011;3254;47.372;8.512;2024-02-15T04:54:51;9.63;;;6.80;;
6442;SDS011;3254;47.372;8.512;2024-02-15T04:57:18;11.35;;;7.22;;
6442;SDS011;3254;47.372;8.512;2024-02-15T04:59:44;9.53;;;7.20;;
6442;SDS011;3254;47.372;8.512;2024-02-15T05:02:12;11.32;;;7.38;;
6442;SDS011;3254;47.372;8.512;2024-02-15T05:04:38;14.27;;;8.67;;
6442;SDS011;3254;47.372;8.512;2024-02-15T05:07:03;16.87;;;9.03;;
6442;SDS011;3254;47.372;8.512;2024-02-15T05:09:29;19.27;;;11.03;;
6442;SDS011;3254;47.372;8.512;2024-02-15T05:11:56;17.55;;;9.95;;
6442;SDS011;3254;47.372;8.512;2024-02-15T05:14:22;18.40;;;9.65;;
6442;SDS011;3254;47.372;8.512;2024-02-15T05:16:48;22.20;;;10.73;;
6442;SDS011;3254;47.372;8.512;2024-02-15T05:19:15;19.63;;;11.23;;
6442;SDS011;3254;47.372;8.512;2024-02-15T05:21:41;31.67;;;15.20;;
6442;SDS011;3254;47.372;8.512;2024-02-15T05:24:09;32.55;;;16.13;;
6442;SDS011;3254;47.372;8.512;2024-02-15T05:26:35;31.13;;;14.65;;
6442;SDS011;3254;47.372;8.512;2024-02-15T05:29:01;26.03;;;12.90;;
6442;SDS011;3254;47.372;8.512;2024-02-15T05:31:26;76.00;;;29.80;;
6442;SDS011;3254;47.372;8.512;2024-02-15T05:33:52;59.73;;;25.03;;
6442;SDS011;3254;47.372;8.512;2024-02-15T05:36:18;50.08;;;18.00;;
6442;SDS011;3254;47.372;8.512;2024-02-15T05:38:47;38.67;;;18.67;;
6442;SDS011;3254;47.372;8.512;2024-02-15T05:41:14;30.52;;;14.45;;
6442;SDS011;3254;47.372;8.512;2024-02-15T05:43:39;32.60;;;15.27;;
6442;SDS011;3254;47.372;8.512;2024-02-15T05:46:08;32.40;;;14.52;;
6442;SDS011;3254;47.372;8.512;2024-02-15T05:48:35;17.88;;;10.30;;
6442;SDS011;3254;47.372;8.512;2024-02-15T05:51:02;35.17;;;14.55;;
6442;SDS011;3254;47.372;8.512;2024-02-15T05:53:31;31.65;;;15.70;;
6442;SDS011;3254;47.372;8.512;2024-02-15T05:56:01;32.05;;;14.68;;
6442;SDS011;3254;47.372;8.512;2024-02-15T05:58:29;28.10;;;14.10;;
6442;SDS011;3254;47.372;8.512;2024-02-15T06:00:54;24.40;;;12.77;;
6442;SDS011;3254;47.372;8.512;2024-02-15T06:03:20;40.60;;;14.87;;
6442;SDS011;3254;47.372;8.512;2024-02-15T06:05:51;29.05;;;12.68;;
6442;SDS011;3254;47.372;8.512;2024-02-15T06:08:16;31.23;;;12.10;;
6442;SDS011;3254;47.372;8.512;2024-02-15T06:10:43;22.40;;;11.83;;
6442;SDS011;3254;47.372;8.512;2024-02-15T06:13:08;27.03;;;12.20;;
6442;SDS011;3254;47.372;8.512;2024-02-15T06:15:36;22.75;;;10.63;;
6442;SDS011;3254;47.372;8.512;2024-02-15T06:18:02;26.73;;;11.00;;
6442;SDS011;3254;47.372;8.512;2024-02-15T06:20:33;25.42;;;11.70;;
6442;SDS011;3254;47.372;8.512;2024-02-15T06:23:00;18.10;;;10.82;;
6442;SDS011;3254;47.372;8.512;2024-02-15T06:25:26;17.27;;;9.85;;
6442;SDS011;3254;47.372;8.512;2024-02-15T06:27:52;17.33;;;9.23;;
6442;SDS011;3254;47.372;8.512;2024-02-15T06:30:23;24.95;;;11.35;;
6442;SDS011;3254;47.372;8.512;2024-02-15T06:33:07;24.67;;;12.00;;
6442;SDS011;3254;47.372;8.512;2024-02-15T06:35:51;16.75;;;10.00;;
6442;SDS011;3254;47.372;8.512;2024-02-15T06:38:35;19.52;;;10.30;;
6442;SDS011;3254;47.372;8.512;2024-02-15T06:41:38;23.00;;;10.23;;
6442;SDS011;3254;47.372;8.512;2024-02-15T06:44:04;18.00;;;8.40;;
6442;SDS011;3254;47.372;8.512;2024-02-15T06:46:29;10.27;;;7.60;;
6442;SDS011;3254;47.372;8.512;2024-02-15T06:48:54;11.27;;;7.57;;
6442;SDS011;3254;47.372;8.512;2024-02-15T06:51:20;9.87;;;6.60;;
6442;SDS011;3254;47.372;8.512;2024-02-15T06:53:45;10.07;;;7.30;;
6442;SDS011;3254;47.372;8.512;2024-02-15T06:56:12;9.25;;;6.85;;
6442;SDS011;3254;47.372;8.512;2024-02-15T06:58:39;5.85;;;5.15;;
6442;SDS011;3254;47.372;8.512;2024-02-15T07:01:05;7.95;;;6.00;;
6442;SDS011;3254;47.372;8.512;2024-02-15T07:03:31;20.63;;;5.97;;
6442;SDS011;3254;47.372;8.512;2024-02-15T07:05:57;19.25;;;6.43;;
6442;SDS011;3254;47.372;8.512;2024-02-15T07:08:22;8.20;;;5.33;;
6442;SDS011;3254;47.372;8.512;2024-02-15T07:10:49;15.10;;;4.78;;
6442;SDS011;3254;47.372;8.512;2024-02-15T07:13:16;5.05;;;4.55;;
6442;SDS011;3254;47.372;8.512;2024-02-15T07:15:42;8.30;;;4.60;;
6442;SDS011;3254;47.372;8.512;2024-02-15T07:18:09;9.05;;;4.80;;
6442;SDS011;3254;47.372;8.512;2024-02-15T07:20:35;12.43;;;5.78;;
6442;SDS011;3254;47.372;8.512;2024-02-15T07:23:01;9.83;;;5.07;;
6442;SDS011;3254;47.372;8.512;2024-02-15T07:25:26;11.40;;;5.90;;
6442;SDS011;3254;47.372;8.512;2024-02-15T07:27:51;6.30;;;5.33;;
6442;SDS011;3254;47.372;8.512;2024-02-15T07:30:18;9.32;;;5.40;;
6442;SDS011;3254;47.372;8.512;2024-02-15T07:32:44;7.80;;;5.27;;
6442;SDS011;3254;47.372;8.512;2024-02-15T07:35:09;10.93;;;4.90;;
6442;SDS011;3254;47.372;8.512;2024-02-15T07:37:35;10.23;;;4.90;;
6442;SDS011;3254;47.372;8.512;2024-02-15T07:40:01;25.87;;;5.83;;
6442;SDS011;3254;47.372;8.512;2024-02-15T07:42:28;5.72;;;5.10;;
6442;SDS011;3254;47.372;8.512;2024-02-15T07:44:54;10.43;;;5.87;;
6442;SDS011;3254;47.372;8.512;2024-02-15T07:47:20;50.20;;;6.37;;
6442;SDS011;3254;47.372;8.512;2024-02-15T07:49:49;11.32;;;5.20;;
6442;SDS011;3254;47.372;8.512;2024-02-15T07:52:14;12.03;;;5.20;;
6442;SDS011;3254;47.372;8.512;2024-02-15T07:54:40;6.57;;;5.10;;
6442;SDS011;3254;47.372;8.512;2024-02-15T07:57:05;8.80;;;4.57;;
6442;SDS011;3254;47.372;8.512;2024-02-15T07:59:30;5.10;;;4.70;;
6442;SDS011;3254;47.372;8.512;2024-02-15T08:01:56;3.97;;;3.70;;
6442;SDS011;3254;47.372;8.512;2024-02-15T08:04:23;4.70;;;4.30;;
6442;SDS011;3254;47.372;8.512;2024-02-15T08:06:49;9.73;;;4.33;;
6442;SDS011;3254;47.372;8.512;2024-02-15T08:09:17;7.03;;;4.50;;
6442;SDS011;3254;47.372;8.512;2024-02-15T08:11:45;5.03;;;4.50;;
6442;SDS011;3254;47.372;8.512;2024-02-15T08:14:10;4.70;;;3.80;;
6442;SDS011;3254;47.372;8.512;2024-02-15T08:16:38;5.40;;;4.90;;
6442;SDS011;3254;47.372;8.512;2024-02-15T08:19:05;12.00;;;4.77;;
6442;SDS011;3254;47.372;8.512;2024-02-15T08:21:32;9.43;;;4.50;;
6442;SDS011;3254;47.372;8.512;2024-02-15T08:23:59;7.00;;;4.43;;
6442;SDS011;3254;47.372;8.512;2024-02-15T08:26:26;6.20;;;4.90;;
6442;SDS011;3254;47.372;8.512;2024-02-15T08:28:51;15.80;;;5.03;;
6442;SDS011;3254;47.372;8.512;2024-02-15T08:31:17;6.83;;;4.63;;
6442;SDS011;3254;47.372;8.512;2024-02-15T08:33:44;9.93;;;5.27;;
6442;SDS011;3254;47.372;8.512;2024-02-15T08:36:10;6.50;;;4.90;;
6442;SDS011;3254;47.372;8.512;2024-02-15T08:38:36;13.53;;;5.20;;
6442;SDS011;3254;47.372;8.512;2024-02-15T08:41:06;12.03;;;5.67;;
6442;SDS011;3254;47.372;8.512;2024-02-15T08:43:33;7.80;;;5.13;;
6442;SDS011;3254;47.372;8.512;2024-02-15T08:45:59;8.63;;;4.80;;
6442;SDS011;3254;47.372;8.512;2024-02-15T08:48:24;13.13;;;5.03;;
6442;SDS011;3254;47.372;8.512;2024-02-15T08:50:51;7.07;;;4.80;;
6442;SDS011;3254;47.372;8.512;2024-02-15T08:53:16;7.17;;;4.50;;
6442;SDS011;3254;47.372;8.512;2024-02-15T08:55:44;13.57;;;4.87;;
6442;SDS011;3254;47.372;8.512;2024-02-15T08:58:12;14.57;;;4.90;;
6442;SDS011;3254;47.372;8.512;2024-02-15T09:00:38;15.17;;;5.77;;
6442;SDS011;3254;47.372;8.512;2024-02-15T09:03:09;9.50;;;5.67;;
6442;SDS011;3254;47.372;8.512;2024-02-15T09:05:34;16.10;;;6.97;;
6442;SDS011;3254;47.372;8.512;2024-02-15T09:08:00;10.60;;;6.90;;
6442;SDS011;3254;47.372;8.512;2024-02-15T09:10:25;14.27;;;5.90;;
6442;SDS011;3254;47.372;8.512;2024-02-15T09:12:51;15.00;;;6.00;;
6442;SDS011;3254;47.372;8.512;2024-02-15T09:15:16;7.77;;;5.27;;
6442;SDS011;3254;47.372;8.512;2024-02-15T09:17:42;10.10;;;4.57;;
6442;SDS011;3254;47.372;8.512;2024-02-15T09:20:09;11.40;;;4.67;;
6442;SDS011;3254;47.372;8.512;2024-02-15T09:22:49;10.90;;;5.60;;
6442;SDS011;3254;47.372;8.512;2024-02-15T09:25:16;12.23;;;4.80;;
6442;SDS011;3254;47.372;8.512;2024-02-15T09:27:45;7.33;;;5.63;;
6442;SDS011;3254;47.372;8.512;2024-02-15T09:30:13;11.37;;;5.47;;
6442;SDS011;3254;47.372;8.512;2024-02-15T09:32:40;6.77;;;4.70;;
6442;SDS011;3254;47.372;8.512;2024-02-15T09:35:05;16.30;;;5.10;;
6442;SDS011;3254;47.372;8.512;2024-02-15T09:37:34;18.70;;;5.20;;
6442;SDS011;3254;47.372;8.512;2024-02-15T09:40:00;9.40;;;4.40;;
6442;SDS011;3254;47.372;8.512;2024-02-15T09:42:31;9.53;;;6.17;;
6442;SDS011;3254;47.372;8.512;2024-02-15T09:44:59;10.10;;;5.20;;
6442;SDS011;3254;47.372;8.512;2024-02-15T09:47:24;13.00;;;5.50;;
6442;SDS011;3254;47.372;8.512;2024-02-15T09:49:50;5.30;;;4.70;;
6442;SDS011;3254;47.372;8.512;2024-02-15T09:52:16;16.67;;;5.07;;
6442;SDS011;3254;47.372;8.512;2024-02-15T09:54:43;13.80;;;4.90;;
6442;SDS011;3254;47.372;8.512;2024-02-15T09:57:08;10.10;;;6.00;;
6442;SDS011;3254;47.372;8.512;2024-02-15T09:59:35;5.50;;;4.63;;
6442;SDS011;3254;47.372;8.512;2024-02-15T10:02:01;13.60;;;5.27;;
6442;SDS011;3254;47.372;8.512;2024-02-15T10:04:27;9.70;;;5.33;;
6442;SDS011;3254;47.372;8.512;2024-02-15T10:06:53;8.27;;;6.10;;
6442;SDS011;3254;47.372;8.512;2024-02-15T10:09:36;8.70;;;4.60;;
6442;SDS011;3254;47.372;8.512;2024-02-15T10:12:02;7.60;;;4.43;;
6442;SDS011;3254;47.372;8.512;2024-02-15T10:14:31;9.50;;;4.50;;
6442;SDS011;3254;47.372;8.512;2024-02-15T10:17:00;10.67;;;4.50;;
6442;SDS011;3254;47.372;8.512;2024-02-15T10:19:31;9.27;;;4.67;;
6442;SDS011;3254;47.372;8.512;2024-02-15T10:22:06;8.23;;;5.23;;
6442;SDS011;3254;47.372;8.512;2024-02-15T10:24:32;14.90;;;5.70;;
6442;SDS011;3254;47.372;8.512;2024-02-15T10:27:01;5.63;;;5.13;;
6442;SDS011;3254;47.372;8.512;2024-02-15T10:29:31;6.77;;;5.03;;
6442;SDS011;3254;47.372;8.512;2024-02-15T10:31:57;14.43;;;5.60;;
6442;SDS011;3254;47.372;8.512;2024-02-15T10:34:25;6.50;;;4.27;;
6442;SDS011;3254;47.372;8.512;2024-02-15T10:36:55;9.03;;;4.40;;
6442;SDS011;3254;47.372;8.512;2024-02-15T10:39:22;5.20;;;4.47;;
6442;SDS011;3254;47.372;8.512;2024-02-15T10:41:52;6.53;;;4.73;;
6442;SDS011;3254;47.372;8.512;2024-02-15T10:46:50;5.00;;;3.33;;
6442;SDS011;3254;47.372;8.512;2024-02-15T10:49:17;4.40;;;3.70;;
6442;SDS011;3254;47.372;8.512;2024-02-15T10:51:48;5.00;;;3.90;;
6442;SDS011;3254;47.372;8.512;2024-02-15T10:54:17;3.70;;;3.10;;
6442;SDS011;3254;47.372;8.512;2024-02-15T10:56:48;5.17;;;3.30;;
6442;SDS011;3254;47.372;8.512;2024-02-15T10:59:18;4.30;;;3.90;;
6442;SDS011;3254;47.372;8.512;2024-02-15T11:01:47;12.57;;;4.43;;
6442;SDS011;3254;47.372;8.512;2024-02-15T11:04:19;5.33;;;3.40;;
6442;SDS011;3254;47.372;8.512;2024-02-15T11:06:47;4.20;;;3.80;;
6442;SDS011;3254;47.372;8.512;2024-02-15T11:09:14;6.57;;;3.63;;
6442;SDS011;3254;47.372;8.512;2024-02-15T11:11:40;10.27;;;4.03;;
6442;SDS011;3254;47.372;8.512;2024-02-15T11:16:59;5.77;;;4.40;;
6442;SDS011;3254;47.372;8.512;2024-02-15T11:22:07;7.90;;;3.80;;
6442;SDS011;3254;47.372;8.512;2024-02-15T11:24:35;4.37;;;4.00;;
6442;SDS011;3254;47.372;8.512;2024-02-15T11:27:01;4.23;;;3.40;;
6442;SDS011;3254;47.372;8.512;2024-02-15T11:43:06;3.57;;;3.30;;
6442;SDS011;3254;47.372;8.512;2024-02-15T11:45:32;3.60;;;3.30;;
6442;SDS011;3254;47.372;8.512;2024-02-15T11:48:09;3.80;;;3.50;;
6442;SDS011;3254;47.372;8.512;2024-02-15T11:50:39;6.00;;;3.43;;
6442;SDS011;3254;47.372;8.512;2024-02-15T11:53:05;3.53;;;3.07;;
6442;SDS011;3254;47.372;8.512;2024-02-15T11:55:34;5.23;;;3.60;;
6442;SDS011;3254;47.372;8.512;2024-02-15T11:58:00;2.83;;;2.63;;
6442;SDS011;3254;47.372;8.512;2024-02-15T12:00:32;2.50;;;2.30;;
6442;SDS011;3254;47.372;8.512;2024-02-15T12:03:17;2.20;;;2.10;;
6442;SDS011;3254;47.372;8.512;2024-02-15T12:06:02;3.50;;;2.90;;
6442;SDS011;3254;47.372;8.512;2024-02-15T12:08:46;2.47;;;2.37;;
6442;SDS011;3254;47.372;8.512;2024-02-15T12:11:31;3.10;;;2.90;;
6442;SDS011;3254;47.372;8.512;2024-02-15T12:14:15;4.13;;;2.80;;
6442;SDS011;3254;47.372;8.512;2024-02-15T12:17:00;6.67;;;2.37;;
6442;SDS011;3254;47.372;8.512;2024-02-15T12:19:52;4.40;;;2.27;;
6442;SDS011;3254;47.372;8.512;2024-02-15T12:22:25;4.20;;;2.60;;
6442;SDS011;3254;47.372;8.512;2024-02-15T12:25:05;2.30;;;2.20;;
6442;SDS011;3254;47.372;8.512;2024-02-15T12:27:45;3.10;;;2.13;;
6442;SDS011;3254;47.372;8.512;2024-02-15T12:30:14;3.60;;;2.53;;
6442;SDS011;3254;47.372;8.512;2024-02-15T12:32:40;2.20;;;2.00;;
6442;SDS011;3254;47.372;8.512;2024-02-15T12:35:10;2.90;;;2.47;;
6442;SDS011;3254;47.372;8.512;2024-02-15T12:38:03;2.60;;;2.40;;
6442;SDS011;3254;47.372;8.512;2024-02-15T12:40:30;3.13;;;2.83;;
6442;SDS011;3254;47.372;8.512;2024-02-15T12:42:56;3.10;;;2.27;;
6442;SDS011;3254;47.372;8.512;2024-02-15T12:45:22;2.73;;;2.50;;
6442;SDS011;3254;47.372;8.512;2024-02-15T12:47:53;4.60;;;2.67;;
6442;SDS011;3254;47.372;8.512;2024-02-15T12:50:19;4.10;;;2.57;;
6442;SDS011;3254;47.372;8.512;2024-02-15T12:52:47;3.30;;;2.70;;
6442;SDS011;3254;47.372;8.512;2024-02-15T12:57:39;12.43;;;3.20;;
6442;SDS011;3254;47.372;8.512;2024-02-15T13:00:09;3.97;;;2.67;;
6442;SDS011;3254;47.372;8.512;2024-02-15T13:02:42;3.10;;;2.90;;
6442;SDS011;3254;47.372;8.512;2024-02-15T13:05:08;2.60;;;2.50;;
6442;SDS011;3254;47.372;8.512;2024-02-15T13:07:33;6.23;;;2.80;;
6442;SDS011;3254;47.372;8.512;2024-02-15T13:10:01;2.73;;;2.53;;
6442;SDS011;3254;47.372;8.512;2024-02-15T13:12:26;3.20;;;3.00;;
6442;SDS011;3254;47.372;8.512;2024-02-15T13:14:53;3.57;;;3.27;;
6442;SDS011;3254;47.372;8.512;2024-02-15T13:17:19;3.07;;;2.80;;
6442;SDS011;3254;47.372;8.512;2024-02-15T13:19:47;11.30;;;3.00;;
6442;SDS011;3254;47.372;8.512;2024-02-15T13:22:14;7.93;;;2.67;;
6442;SDS011;3254;47.372;8.512;2024-02-15T13:24:40;4.23;;;3.07;;
6442;SDS011;3254;47.372;8.512;2024-02-15T13:27:07;3.10;;;2.87;;
6442;SDS011;3254;47.372;8.512;2024-02-15T13:29:35;5.27;;;2.87;;
6442;SDS011;3254;47.372;8.512;2024-02-15T13:32:00;3.00;;;2.80;;
6442;SDS011;3254;47.372;8.512;2024-02-15T13:34:26;7.63;;;3.47;;
6442;SDS011;3254;47.372;8.512;2024-02-15T13:36:51;5.80;;;2.70;;
6442;SDS011;3254;47.372;8.512;2024-02-15T13:39:17;2.73;;;2.53;;
6442;SDS011;3254;47.372;8.512;2024-02-15T13:41:46;5.00;;;2.50;;
6442;SDS011;3254;47.372;8.512;2024-02-15T13:44:12;3.47;;;2.30;;
6442;SDS011;3254;47.372;8.512;2024-02-15T13:46:37;7.47;;;2.73;;
6442;SDS011;3254;47.372;8.512;2024-02-15T13:49:04;5.17;;;2.33;;
6442;SDS011;3254;47.372;8.512;2024-02-15T13:51:29;4.50;;;2.80;;
6442;SDS011;3254;47.372;8.512;2024-02-15T13:53:54;4.80;;;3.07;;
6442;SDS011;3254;47.372;8.512;2024-02-15T13:56:21;8.67;;;2.33;;
6442;SDS011;3254;47.372;8.512;2024-02-15T13:58:47;7.50;;;2.40;;
6442;SDS011;3254;47.372;8.512;2024-02-15T14:01:12;2.70;;;2.47;;
6442;SDS011;3254;47.372;8.512;2024-02-15T14:03:39;4.10;;;2.97;;
6442;SDS011;3254;47.372;8.512;2024-02-15T14:06:06;3.43;;;2.77;;
6442;SDS011;3254;47.372;8.512;2024-02-15T14:08:31;3.20;;;2.90;;
6442;SDS011;3254;47.372;8.512;2024-02-15T14:10:57;3.07;;;2.87;;
6442;SDS011;3254;47.372;8.512;2024-02-15T14:13:22;5.33;;;2.63;;
6442;SDS011;3254;47.372;8.512;2024-02-15T14:15:48;5.27;;;3.70;;
6442;SDS011;3254;47.372;8.512;2024-02-15T14:18:13;5.30;;;2.80;;
6442;SDS011;3254;47.372;8.512;2024-02-15T14:20:41;3.23;;;2.97;;
6442;SDS011;3254;47.372;8.512;2024-02-15T14:23:08;8.93;;;3.30;;
6442;SDS011;3254;47.372;8.512;2024-02-15T14:25:38;3.97;;;2.27;;
6442;SDS011;3254;47.372;8.512;2024-02-15T14:28:04;2.70;;;2.50;;
6442;SDS011;3254;47.372;8.512;2024-02-15T14:30:32;7.73;;;2.73;;
6442;SDS011;3254;47.372;8.512;2024-02-15T14:33:16;3.63;;;2.57;;
6442;SDS011;3254;47.372;8.512;2024-02-15T14:35:44;6.13;;;2.70;;
6442;SDS011;3254;47.372;8.512;2024-02-15T14:38:10;5.60;;;3.03;;
6442;SDS011;3254;47.372;8.512;2024-02-15T14:40:40;3.40;;;2.70;;
6442;SDS011;3254;47.372;8.512;2024-02-15T14:43:27;5.27;;;2.90;;
6442;SDS011;3254;47.372;8.512;2024-02-15T14:45:53;2.90;;;2.70;;
6442;SDS011;3254;47.372;8.512;2024-02-15T14:48:21;7.20;;;2.80;;
6442;SDS011;3254;47.372;8.512;2024-02-15T14:50:46;5.23;;;2.63;;
6442;SDS011;3254;47.372;8.512;2024-02-15T14:53:12;4.00;;;2.60;;
6442;SDS011;3254;47.372;8.512;2024-02-15T14:55:38;5.33;;;2.90;;
6442;SDS011;3254;47.372;8.512;2024-02-15T14:58:04;3.23;;;3.03;;
6442;SDS011;3254;47.372;8.512;2024-02-15T15:00:30;3.10;;;2.43;;
6442;SDS011;3254;47.372;8.512;2024-02-15T15:02:56;4.77;;;2.90;;
6442;SDS011;3254;47.372;8.512;2024-02-15T15:05:22;2.60;;;2.40;;
6442;SDS011;3254;47.372;8.512;2024-02-15T15:08:06;8.80;;;3.00;;
6442;SDS011;3254;47.372;8.512;2024-02-15T15:10:50;5.33;;;2.80;;
6442;SDS011;3254;47.372;8.512;2024-02-15T15:13:34;4.70;;;3.60;;
6442;SDS011;3254;47.372;8.512;2024-02-15T15:15:59;4.33;;;3.80;;
6442;SDS011;3254;47.372;8.512;2024-02-15T15:18:25;12.03;;;3.40;;
6442;SDS011;3254;47.372;8.512;2024-02-15T15:20:51;7.23;;;3.70;;
6442;SDS011;3254;47.372;8.512;2024-02-15T15:23:17;9.10;;;3.80;;
6442;SDS011;3254;47.372;8.512;2024-02-15T15:25:42;10.83;;;3.47;;
6442;SDS011;3254;47.372;8.512;2024-02-15T15:28:08;3.93;;;3.17;;
6442;SDS011;3254;47.372;8.512;2024-02-15T15:30:33;4.90;;;3.07;;
6442;SDS011;3254;47.372;8.512;2024-02-15T15:33:02;9.60;;;3.50;;
6442;SDS011;3254;47.372;8.512;2024-02-15T15:35:28;4.90;;;3.57;;
6442;SDS011;3254;47.372;8.512;2024-02-15T15:37:54;6.87;;;3.10;;